Upper Skagit Indian Reservat, Washington
Current Conditions -  °F | °C
As of 6:56 PM on Monday 20 Oct 2014 (Local Time) from KNUW Reporting Station
Broken Clouds Broken Clouds  
Wind Chill: 62°   Ceiling: 7000
Heat Index: 62°   Visibility: 10mi
Dew Point: 52°   Wind: 7mph
Humidity: 70%   Direction: 150°SSE
Pressure: 29.73"   Gusts: NA
Location:  48.4982°N, 122.346°W
Report Text: KNUW 210156Z 15006KT 10SM SCT030 BKN070 BKN110 17/11 A2973 RMK AO2 SLP070 T01670111 $
Loading
Personal Weather Stations






























Interactive Weather Map
Tropical Storm Tracking
New forecast layout! Learn more

10-Day Weather Forecast

Advertisements
Track Severe Weather on mobile